createdAt,value
2023-04-02T00:01:54.466Z,18.40
2023-04-02T00:04:27.856Z,18.60
2023-04-02T00:07:51.287Z,18.50
2023-04-02T00:10:50.564Z,18.40
2023-04-02T00:13:23.224Z,18.50
2023-04-02T00:16:00.190Z,18.70
2023-04-02T00:19:38.972Z,18.80
2023-04-02T00:22:33.081Z,18.60
2023-04-02T00:25:23.010Z,18.60
2023-04-02T00:27:55.334Z,18.70
2023-04-02T00:30:58.812Z,18.70
2023-04-02T00:33:53.032Z,18.80
2023-04-02T00:40:33.947Z,18.90
2023-04-02T00:46:03.660Z,19.40
2023-04-02T00:48:55.905Z,19.50
2023-04-02T00:51:59.292Z,19.50
2023-04-02T00:55:01.766Z,19.50
2023-04-02T00:57:42.082Z,19.60
2023-04-02T01:01:01.303Z,19.70
2023-04-02T01:03:40.769Z,19.70
2023-04-02T01:06:38.882Z,19.60
2023-04-02T01:09:46.568Z,19.60
2023-04-02T01:13:03.601Z,19.50
2023-04-02T01:15:52.887Z,19.50
2023-04-02T01:18:58.769Z,19.30
2023-04-02T01:21:44.022Z,19.00
2023-04-02T01:24:23.218Z,19.20
2023-04-02T01:27:01.010Z,19.50
2023-04-02T01:30:04.170Z,19.80
2023-04-02T01:32:41.339Z,19.80
2023-04-02T01:35:14.318Z,20.00
2023-04-02T01:38:01.765Z,19.90
2023-04-02T01:41:54.274Z,19.90
2023-04-02T01:45:15.712Z,20.10
2023-04-02T01:47:48.803Z,20.20
2023-04-02T01:51:11.216Z,20.30
2023-04-02T01:53:50.405Z,20.30
2023-04-02T01:56:32.639Z,20.20
2023-04-02T01:59:08.042Z,20.30
2023-04-02T02:02:26.970Z,20.30
2023-04-02T02:05:25.204Z,20.40
2023-04-02T02:08:00.568Z,20.30
2023-04-02T02:10:41.411Z,20.30
2023-04-02T02:13:19.012Z,20.40
2023-04-02T02:15:50.566Z,20.50
2023-04-02T02:18:27.413Z,20.60
2023-04-02T02:21:02.581Z,20.60
2023-04-02T02:23:35.283Z,20.50
2023-04-02T02:26:28.112Z,20.20
2023-04-02T02:29:01.912Z,20.50
2023-04-02T02:31:59.627Z,20.60
2023-04-02T02:34:57.163Z,20.60
2023-04-02T02:37:48.017Z,20.70
2023-04-02T02:40:40.838Z,20.90
2023-04-02T02:43:18.856Z,21.10
2023-04-02T02:49:06.712Z,21.30
2023-04-02T02:52:03.323Z,21.20
2023-04-02T02:55:17.761Z,21.60
2023-04-02T02:58:11.665Z,21.60
2023-04-02T03:01:03.355Z,21.70
2023-04-02T03:03:38.866Z,21.50
2023-04-02T03:06:22.412Z,21.50
2023-04-02T03:09:05.902Z,21.50
2023-04-02T03:12:39.247Z,21.50
2023-04-02T03:15:41.374Z,20.90
2023-04-02T03:18:45.930Z,20.90
2023-04-02T03:21:51.285Z,21.20
2023-04-02T03:24:55.196Z,21.10
2023-04-02T03:27:37.048Z,21.40
2023-04-02T03:30:33.341Z,21.50
2023-04-02T03:33:24.854Z,21.70
2023-04-02T03:36:21.812Z,21.80
2023-04-02T03:39:17.101Z,21.80
2023-04-02T03:42:08.100Z,21.90
2023-04-02T03:45:12.762Z,21.80
2023-04-02T03:48:16.978Z,22.10
2023-04-02T03:50:57.347Z,22.30
2023-04-02T03:53:31.260Z,22.40
2023-04-02T03:56:25.192Z,22.20
2023-04-02T03:59:14.955Z,22.30
2023-04-02T04:02:03.535Z,22.10
2023-04-02T04:04:41.368Z,22.00
2023-04-02T04:07:41.359Z,22.10
2023-04-02T04:10:33.902Z,22.30
2023-04-02T04:13:50.995Z,22.20
2023-04-02T04:16:31.874Z,21.80
2023-04-02T04:19:19.996Z,21.80
2023-04-02T04:21:59.209Z,21.90
2023-04-02T04:24:31.735Z,21.30
2023-04-02T04:30:49.430Z,21.60
2023-04-02T04:33:31.126Z,21.90
2023-04-02T04:36:11.039Z,22.10
2023-04-02T04:38:52.895Z,22.10
2023-04-02T04:41:36.559Z,21.90
2023-04-02T04:44:47.227Z,22.00
2023-04-02T04:47:36.394Z,21.90
2023-04-02T04:50:35.045Z,22.30
2023-04-02T04:53:33.291Z,22.30
2023-04-02T04:56:34.419Z,22.20
2023-04-02T04:59:23.405Z,22.20
2023-04-02T05:02:58.117Z,22.30
2023-04-02T05:05:51.348Z,22.30
2023-04-02T05:08:33.975Z,22.30
2023-04-02T05:11:29.277Z,22.30
2023-04-02T05:14:44.309Z,22.00
2023-04-02T05:17:40.004Z,22.00
2023-04-02T05:21:37.085Z,21.80
2023-04-02T05:24:29.672Z,21.90
2023-04-02T05:27:31.938Z,21.40
2023-04-02T05:30:43.677Z,21.40
2023-04-02T05:33:31.576Z,21.40
2023-04-02T05:36:17.294Z,21.40
2023-04-02T05:38:55.559Z,21.30
2023-04-02T05:41:49.312Z,21.60
2023-04-02T05:45:10.296Z,21.40
2023-04-02T05:47:47.973Z,21.50
2023-04-02T05:50:46.258Z,21.60
2023-04-02T05:53:43.489Z,21.40
2023-04-02T05:57:12.060Z,21.60
2023-04-02T05:59:49.380Z,21.50
2023-04-02T06:02:33.782Z,21.30
2023-04-02T06:05:26.008Z,21.10
2023-04-02T06:08:17.799Z,20.90
2023-04-02T06:12:01.364Z,20.90
2023-04-02T06:14:56.194Z,21.10
2023-04-02T06:18:23.610Z,21.00
2023-04-02T06:21:41.802Z,21.00
2023-04-02T06:24:22.781Z,21.30
2023-04-02T06:27:23.999Z,21.20
2023-04-02T06:30:03.274Z,21.30
2023-04-02T06:32:37.007Z,20.80
2023-04-02T06:35:24.344Z,20.60
2023-04-02T06:38:11.032Z,20.70
2023-04-02T06:41:06.384Z,20.90
2023-04-02T06:44:22.312Z,21.30
2023-04-02T06:47:46.292Z,21.10
2023-04-02T06:51:06.131Z,20.60
2023-04-02T06:53:58.169Z,20.90
2023-04-02T06:56:39.346Z,21.20
2023-04-02T06:59:15.681Z,21.30
2023-04-02T07:03:02.262Z,21.40
2023-04-02T07:05:49.452Z,21.30
2023-04-02T07:08:42.610Z,21.10
2023-04-02T07:11:25.533Z,21.10
2023-04-02T07:14:24.042Z,21.00
2023-04-02T07:16:58.482Z,21.30
2023-04-02T07:19:32.290Z,21.30
2023-04-02T07:22:06.532Z,21.00
2023-04-02T07:24:48.534Z,21.10
2023-04-02T07:27:34.744Z,21.00
2023-04-02T07:30:13.331Z,20.90
2023-04-02T07:32:47.954Z,20.90
2023-04-02T07:35:42.148Z,20.90
2023-04-02T07:38:53.787Z,20.90
2023-04-02T07:41:48.797Z,21.10
2023-04-02T07:45:01.450Z,21.10
2023-04-02T07:50:46.430Z,21.10
2023-04-02T07:53:52.030Z,21.30
2023-04-02T07:56:49.433Z,21.10
2023-04-02T07:59:32.323Z,21.50
2023-04-02T08:02:04.987Z,21.60
2023-04-02T08:04:38.335Z,21.20
2023-04-02T08:07:12.593Z,21.50
2023-04-02T08:10:06.169Z,21.50
2023-04-02T08:12:58.642Z,21.50
2023-04-02T08:15:32.937Z,21.40
2023-04-02T08:18:06.270Z,21.60
2023-04-02T08:20:45.272Z,21.70
2023-04-02T08:23:25.655Z,21.60
2023-04-02T08:25:59.818Z,21.10
2023-04-02T08:28:36.925Z,21.50
2023-04-02T08:31:10.655Z,21.60
2023-04-02T08:33:42.718Z,21.60
2023-04-02T08:36:22.925Z,21.70
2023-04-02T08:38:54.942Z,21.50
2023-04-02T08:41:30.319Z,21.60
2023-04-02T08:44:34.629Z,21.50
2023-04-02T08:47:29.653Z,21.50
2023-04-02T08:50:21.400Z,21.80
2023-04-02T08:52:55.270Z,21.50
2023-04-02T08:55:38.238Z,21.80
2023-04-02T08:58:57.293Z,21.70
2023-04-02T09:01:53.901Z,21.30
2023-04-02T09:04:37.374Z,21.30
2023-04-02T09:07:16.333Z,21.20
2023-04-02T09:10:11.450Z,21.60
2023-04-02T09:12:49.019Z,21.30
2023-04-02T09:15:39.590Z,21.50
2023-04-02T09:18:21.143Z,21.40
2023-04-02T09:20:54.744Z,21.40
2023-04-02T09:23:32.389Z,21.50
2023-04-02T09:26:31.686Z,21.20
2023-04-02T09:29:16.162Z,21.50
2023-04-02T09:32:03.151Z,21.20
2023-04-02T09:34:55.854Z,21.10
2023-04-02T09:40:37.224Z,21.30
2023-04-02T09:43:38.004Z,21.30
2023-04-02T09:46:52.867Z,21.40
2023-04-02T09:49:40.266Z,21.10
2023-04-02T09:52:27.249Z,20.80
2023-04-02T09:55:21.723Z,20.90
2023-04-02T09:58:08.637Z,20.90
2023-04-02T10:00:42.154Z,20.90
2023-04-02T10:03:51.931Z,21.00
2023-04-02T10:06:24.476Z,21.10
2023-04-02T10:09:16.103Z,20.70
2023-04-02T10:11:48.327Z,20.50
2023-04-02T10:14:50.400Z,20.70
2023-04-02T10:17:42.529Z,21.00
2023-04-02T10:20:29.320Z,21.00
2023-04-02T10:23:26.739Z,21.10
2023-04-02T10:26:11.511Z,20.90
2023-04-02T10:29:53.227Z,21.00
2023-04-02T10:33:04.811Z,21.10
2023-04-02T10:36:32.225Z,20.90
2023-04-02T10:39:13.752Z,20.80
2023-04-02T10:41:50.353Z,20.70
2023-04-02T10:44:44.081Z,20.90
2023-04-02T10:47:29.818Z,21.00
2023-04-02T10:50:22.848Z,20.80
2023-04-02T10:53:23.443Z,20.90
2023-04-02T10:56:05.169Z,20.60
2023-04-02T10:59:04.342Z,20.70
2023-04-02T11:01:40.463Z,20.70
2023-04-02T11:04:29.275Z,20.90
2023-04-02T11:07:48.170Z,20.90
2023-04-02T11:10:48.088Z,20.70
2023-04-02T11:13:38.929Z,20.20
2023-04-02T11:19:21.771Z,20.90
2023-04-02T11:22:09.113Z,20.80
2023-04-02T11:25:03.093Z,20.60
2023-04-02T11:27:40.624Z,20.80
2023-04-02T11:30:33.018Z,20.70
2023-04-02T11:33:46.005Z,20.60
2023-04-02T11:36:57.675Z,20.60
2023-04-02T11:40:00.636Z,20.70
2023-04-02T11:42:57.415Z,20.90
2023-04-02T11:45:43.132Z,20.80
2023-04-02T11:48:46.873Z,20.60
2023-04-02T11:51:25.991Z,20.60
2023-04-02T11:56:59.627Z,20.90
2023-04-02T12:00:27.543Z,20.70
2023-04-02T12:03:24.544Z,20.60
2023-04-02T12:06:40.069Z,20.70
2023-04-02T12:09:33.449Z,20.30
2023-04-02T12:12:54.300Z,20.70
2023-04-02T12:15:48.600Z,20.50
2023-04-02T12:18:27.656Z,20.60
2023-04-02T12:21:00.310Z,20.80
2023-04-02T12:24:01.412Z,20.80
2023-04-02T12:26:45.568Z,20.90
2023-04-02T12:30:01.046Z,20.70
2023-04-02T12:32:34.925Z,20.70
2023-04-02T12:35:08.405Z,20.60
2023-04-02T12:37:41.562Z,20.40
2023-04-02T12:40:21.984Z,20.70
2023-04-02T12:43:38.601Z,20.90
2023-04-02T12:46:16.935Z,20.50
2023-04-02T12:48:50.971Z,20.10
2023-04-02T12:51:56.428Z,20.40
2023-04-02T12:57:47.558Z,20.90
2023-04-02T13:00:41.526Z,20.70
2023-04-02T13:03:44.554Z,20.70
2023-04-02T13:07:13.514Z,20.40
2023-04-02T13:10:25.186Z,20.60
2023-04-02T13:16:38.554Z,20.50
2023-04-02T13:19:41.813Z,20.40
2023-04-02T13:22:33.725Z,20.50
2023-04-02T13:25:10.907Z,20.20
2023-04-02T13:27:46.079Z,20.60
2023-04-02T13:30:58.120Z,20.30
2023-04-02T13:34:13.385Z,20.70
2023-04-02T13:37:27.706Z,20.10
2023-04-02T13:46:31.093Z,20.70
2023-04-02T13:49:06.131Z,20.60
2023-04-02T13:52:07.063Z,20.30
2023-04-02T13:58:08.647Z,20.40
2023-04-02T14:00:43.340Z,20.60
2023-04-02T14:03:26.144Z,20.30
2023-04-02T14:09:20.732Z,20.30
2023-04-02T14:12:19.761Z,20.60
2023-04-02T14:15:11.589Z,20.70
2023-04-02T14:17:59.629Z,20.50
2023-04-02T14:20:52.082Z,20.40
2023-04-02T14:23:48.763Z,20.50
2023-04-02T14:26:48.134Z,20.10
2023-04-02T14:29:35.513Z,20.50
2023-04-02T14:33:00.466Z,20.60
2023-04-02T14:35:58.611Z,19.90
2023-04-02T14:38:58.504Z,19.80
2023-04-02T14:41:45.826Z,19.80
2023-04-02T14:44:49.690Z,20.20
2023-04-02T14:50:44.104Z,20.30
2023-04-02T14:54:33.783Z,20.60
2023-04-02T14:57:59.304Z,20.70
2023-04-02T15:01:22.563Z,20.60
2023-04-02T15:04:43.428Z,19.80
2023-04-02T15:07:51.147Z,19.70
2023-04-02T15:11:01.923Z,20.00
2023-04-02T15:13:58.248Z,20.50
2023-04-02T15:16:52.883Z,20.40
2023-04-02T15:19:26.307Z,20.70
2023-04-02T15:25:24.532Z,20.00
2023-04-02T15:28:37.505Z,20.00
2023-04-02T15:31:19.053Z,20.60
2023-04-02T15:34:17.212Z,20.60
2023-04-02T15:37:02.094Z,20.30
2023-04-02T15:40:12.701Z,20.60
2023-04-02T15:43:21.936Z,20.70
2023-04-02T15:46:35.101Z,20.70
2023-04-02T15:49:46.174Z,20.50
2023-04-02T15:53:14.050Z,20.70
2023-04-02T15:58:53.768Z,20.80
2023-04-02T16:01:54.752Z,20.60
2023-04-02T16:05:00.415Z,20.60
2023-04-02T16:07:50.305Z,20.60
2023-04-02T16:10:46.931Z,20.70
2023-04-02T16:13:43.928Z,20.10
2023-04-02T16:16:44.615Z,20.30
2023-04-02T16:19:41.067Z,20.50
2023-04-02T16:22:35.133Z,20.10
2023-04-02T16:25:18.666Z,20.10
2023-04-02T16:28:50.713Z,20.50
2023-04-02T16:31:32.731Z,20.60
2023-04-02T16:35:01.796Z,20.40
2023-04-02T16:38:26.799Z,20.10
2023-04-02T16:41:12.640Z,20.50
2023-04-02T16:44:02.032Z,20.50
2023-04-02T16:46:55.359Z,20.60
2023-04-02T16:49:45.083Z,20.40
2023-04-02T16:52:43.689Z,20.30
2023-04-02T16:55:26.857Z,20.50
2023-04-02T16:58:16.208Z,20.50
2023-04-02T17:01:13.428Z,20.20
2023-04-02T17:04:48.018Z,20.60
2023-04-02T17:07:35.977Z,20.70
2023-04-02T17:10:53.857Z,20.80
2023-04-02T17:13:50.246Z,20.90
2023-04-02T17:16:53.702Z,20.50
2023-04-02T17:19:30.728Z,20.80
2023-04-02T17:22:27.905Z,20.80
2023-04-02T17:25:05.673Z,20.80
2023-04-02T17:27:51.009Z,20.80
2023-04-02T17:30:42.114Z,21.00
2023-04-02T17:33:23.712Z,21.00
2023-04-02T17:36:05.839Z,20.90
2023-04-02T17:38:56.131Z,20.90
2023-04-02T17:41:39.871Z,20.60
2023-04-02T17:44:13.757Z,20.70
2023-04-02T17:47:13.688Z,20.60
2023-04-02T17:50:14.696Z,20.50
2023-04-02T17:53:09.120Z,20.70
2023-04-02T17:56:04.208Z,20.40
2023-04-02T17:58:58.822Z,20.40
2023-04-02T18:01:38.689Z,20.90
2023-04-02T18:04:25.540Z,20.70
2023-04-02T18:07:18.866Z,20.90
2023-04-02T18:10:03.650Z,21.00
2023-04-02T18:12:40.143Z,20.60
2023-04-02T18:15:36.632Z,20.80
2023-04-02T18:18:44.082Z,21.00
2023-04-02T18:21:54.140Z,20.70
2023-04-02T18:25:04.697Z,20.60
2023-04-02T18:27:47.528Z,20.80
2023-04-02T18:30:37.096Z,20.90
2023-04-02T18:33:30.660Z,20.70
2023-04-02T18:36:24.150Z,20.70
2023-04-02T18:39:14.664Z,20.40
2023-04-02T18:42:02.003Z,20.30
2023-04-02T18:44:50.996Z,20.30
2023-04-02T18:47:47.891Z,20.70
2023-04-02T18:50:36.985Z,20.70
2023-04-02T18:53:21.405Z,20.80
2023-04-02T18:56:05.967Z,20.20
2023-04-02T18:58:52.398Z,20.40
2023-04-02T19:01:49.220Z,20.70
2023-04-02T19:04:33.314Z,20.70
2023-04-02T19:07:33.495Z,21.00
2023-04-02T19:10:44.328Z,21.20
2023-04-02T19:13:40.453Z,21.50
2023-04-02T19:16:38.818Z,21.30
2023-04-02T19:19:26.061Z,21.10
2023-04-02T19:22:35.878Z,21.00
2023-04-02T19:25:20.026Z,21.10
2023-04-02T19:28:06.979Z,21.30
2023-04-02T19:31:14.283Z,20.90
2023-04-02T19:34:23.768Z,20.90
2023-04-02T19:37:21.260Z,20.60
2023-04-02T19:40:14.653Z,20.40
2023-04-02T19:42:50.039Z,20.70
2023-04-02T19:45:32.268Z,20.50
2023-04-02T19:48:13.196Z,20.70
2023-04-02T19:51:05.017Z,20.60
2023-04-02T19:53:38.005Z,20.50
2023-04-02T19:56:10.426Z,20.50
2023-04-02T19:58:42.596Z,20.50
2023-04-02T20:01:14.828Z,20.60
2023-04-02T20:03:46.077Z,20.70
2023-04-02T20:06:18.580Z,20.80
2023-04-02T20:08:50.020Z,20.90
2023-04-02T20:11:23.764Z,20.60
2023-04-02T20:13:56.727Z,20.50
2023-04-02T20:16:27.988Z,20.30
2023-04-02T20:19:00.388Z,20.50
2023-04-02T20:21:39.408Z,20.70
2023-04-02T20:24:11.188Z,20.50
2023-04-02T20:26:42.510Z,20.30
2023-04-02T20:29:14.462Z,20.50
2023-04-02T20:31:46.148Z,20.30
2023-04-02T20:34:17.935Z,20.60
2023-04-02T20:36:50.293Z,20.50
2023-04-02T20:39:23.632Z,20.50
2023-04-02T20:41:55.637Z,20.90
2023-04-02T20:44:27.291Z,21.10
2023-04-02T20:46:59.129Z,20.60
2023-04-02T20:49:31.604Z,20.80
2023-04-02T20:52:03.964Z,20.80
2023-04-02T20:54:36.978Z,20.80
2023-04-02T20:57:08.849Z,21.00
2023-04-02T20:59:40.594Z,20.80
2023-04-02T21:02:16.135Z,21.10
2023-04-02T21:04:48.010Z,20.80
2023-04-02T21:07:20.268Z,20.80
2023-04-02T21:09:53.565Z,20.80
2023-04-02T21:12:26.751Z,21.10
2023-04-02T21:15:01.899Z,20.70
2023-04-02T21:17:35.955Z,21.00
2023-04-02T21:20:10.703Z,21.30
2023-04-02T21:22:43.994Z,21.50
2023-04-02T21:25:15.505Z,21.30
2023-04-02T21:27:46.807Z,21.10
2023-04-02T21:30:19.488Z,21.10
2023-04-02T21:32:51.038Z,21.30
2023-04-02T21:35:23.424Z,21.10
2023-04-02T21:37:55.380Z,21.40
2023-04-02T21:40:27.599Z,21.30
2023-04-02T21:42:58.938Z,21.10
2023-04-02T21:45:31.950Z,21.10
2023-04-02T21:48:23.776Z,21.30
2023-04-02T21:50:56.279Z,21.30
2023-04-02T21:53:28.750Z,21.30
2023-04-02T21:56:08.770Z,21.50
2023-04-02T21:58:40.286Z,21.50
2023-04-02T22:01:23.915Z,21.40
2023-04-02T22:04:02.573Z,21.40
2023-04-02T22:06:38.411Z,21.20
2023-04-02T22:09:16.496Z,21.30
2023-04-02T22:11:52.585Z,21.10
2023-04-02T22:14:24.484Z,20.90
2023-04-02T22:16:56.997Z,21.00
2023-04-02T22:19:29.789Z,21.30
2023-04-02T22:22:00.799Z,20.70
2023-04-02T22:24:33.427Z,21.00
2023-04-02T22:27:05.655Z,21.20
2023-04-02T22:29:37.538Z,20.90
2023-04-02T22:32:29.946Z,21.10
2023-04-02T22:35:01.812Z,21.10
2023-04-02T22:37:53.281Z,21.40
2023-04-02T22:40:25.762Z,21.10
2023-04-02T22:42:58.571Z,20.80
2023-04-02T22:45:30.660Z,21.10
2023-04-02T22:48:02.551Z,20.70
2023-04-02T22:50:34.587Z,21.00
2023-04-02T22:53:13.771Z,21.00
2023-04-02T22:55:46.289Z,20.90
2023-04-02T22:58:19.002Z,21.00
2023-04-02T23:00:53.960Z,21.10
2023-04-02T23:03:25.584Z,21.30
2023-04-02T23:06:20.353Z,21.20
2023-04-02T23:08:52.436Z,21.50
2023-04-02T23:11:30.879Z,21.70
2023-04-02T23:14:02.799Z,21.40
2023-04-02T23:16:35.270Z,21.50
2023-04-02T23:19:08.292Z,21.10
2023-04-02T23:21:41.110Z,21.40
2023-04-02T23:24:14.712Z,21.50
2023-04-02T23:26:46.957Z,21.60
2023-04-02T23:29:39.017Z,21.60
2023-04-02T23:32:11.114Z,21.60
2023-04-02T23:34:43.110Z,21.60
2023-04-02T23:37:15.208Z,21.80
2023-04-02T23:39:47.635Z,21.90
2023-04-02T23:42:29.431Z,21.60
2023-04-02T23:45:01.950Z,21.60
2023-04-02T23:47:33.929Z,21.90
2023-04-02T23:50:06.576Z,21.70
2023-04-02T23:52:38.906Z,21.90
2023-04-02T23:55:11.682Z,21.90
2023-04-02T23:57:43.808Z,22.10
